Nearby METAR Reports

 

YSCB - Canberra (civ/Mi, Australia
Distance from station: N 0km
Updated: 18/05/2024 17:30
Clear
Clear
 Wind from S
Wind: S 30 km/h
Temperature: 8°C
Wind Chill: 4°C
Dew Point: 2°C
Humidity: 66%
Barometer: 1025 hPa
Clouds: Clear
Visibility: 10 km
2024/05/18 07:30 YSCB 180730Z AUTO 18016KT 9999 // NCD 08/02 Q1025 RF00.0/000.0
YSSY - Sydney Intl Airp, Australia
Distance from station: NE 236km
Updated: 18/05/2024 17:30
Drizzle, Nearby showers, Mostly cloudy
Drizzle, Nearby showers, Mostly cloudy
 Wind from SSW
Wind: SSW 43 km/h
Temperature: 13°C
Dew Point: 10°C
Humidity: 82%
Barometer: 1023 hPa
Summary: Drizzle, Nearby showers
Clouds: Mostly cloudy
Visibility: 10 km
Cloud details: Few Clouds 518 m
Mostly cloudy 610 m
Mostly cloudy 1219 m
2024/05/18 07:30 YSSY 180730Z 20023KT 9999 DZ VCSH FEW017 BKN020 BKN040 13/10 Q1023
YSRI - Richmond (aus-Af, Australia
Distance from station: NE 238km
Updated: 18/05/2024 17:30
Clear
Clear
 Wind from S
Wind: S 24 km/h
Temperature: 14°C
Dew Point: 6°C
Humidity: 59%
Barometer: 1023 hPa
Clouds: Clear
Visibility: 10 km
2024/05/18 07:30 YSRI 180730Z AUTO 19013KT 9999 // NCD 14/06 Q1023 RF00.0/000.2
 
YSDU - Dubbo, Australia
Distance from station: N 345km
Updated: 18/05/2024 17:30
Clear
Clear
 Wind from S
Wind: S 17 km/h
Temperature: 13°C
Dew Point: 3°C
Humidity: 51%
Barometer: 1023 hPa
Clouds: Clear
Visibility: 10 km
2024/05/18 07:30 YSDU 180730Z AUTO 17009KT 9999 // NCD 13/03 Q1023 RF00.0/000.0
YWLM - Williamtown Arp, Australia
Distance from station: NE 370km
Updated: 18/05/2024 17:34
Rain, Mostly cloudy
Rain, Mostly cloudy
 Wind from SW
Wind: SW 28 km/h
Temperature: 12°C
Dew Point: 10°C
Humidity: 88%
Barometer: 1021 hPa
Summary: Rain
Clouds: Mostly cloudy
Visibility: 6 km
Cloud details: Partly cloudy 549 m
Mostly cloudy 884 m
Mostly cloudy 1341 m
2024/05/18 07:34 YWLM 180734Z AUTO 23015KT 6000 RA SCT018 BKN029 BKN044 12/10 Q1021
YMML - Melbourne Intl A, Australia
Distance from station: SW 471km
Updated: 18/05/2024 17:30
Partly cloudy
Partly cloudy
 Wind from S
Wind: S 9 km/h
Temperature: 9°C
Wind Chill: 7°C
Dew Point: 2°C
Humidity: 62%
Barometer: 1030 hPa
Clouds: Partly cloudy
Visibility: 10 km
Cloud details: Few Clouds 1372 m
Partly cloudy 10973 m
2024/05/18 07:30 YMML 180730Z 19005KT 9999 FEW045 SCT360 09/02 Q1030 RF00.0/000.0
 
YSTW - Tamworth Airport, Australia
Distance from station: NNE 494km
Updated: 18/05/2024 17:30
Clear
Clear
 Wind from S
Wind: S 22 km/h
Temperature: 10°C
Wind Chill: 7°C
Dew Point: 5°C
Humidity: 71%
Barometer: 1020 hPa
Clouds: Clear
Visibility: 10 km
2024/05/18 07:30 YSTW 180730Z AUTO 18012KT 9999 // NCD 10/05 Q1020 RF00.0/000.0